Time;durP1;ratioP1;P1;durP2;ratioP2;P2;SDS_P1;SDS_P2;PMS_P1;PMS_P2;Temp;Humidity;BMP_temperature;BMP_pressure;BME280_temperature;BME280_humidity;BME280_pressure;Samples;Min_cycle;Max_cycle;Signal;HPM_P1;HPM_P2
2021/12/20 00:02:09;;;;;;;3.20;3.10;;;2.80;5.50;;;;;;6236415;28;20859;-59
2021/12/20 00:05:14;;;;;;;3.53;3.33;;;2.70;5.40;;;;;;6233349;28;20394;-59
2021/12/20 00:08:17;;;;;;;3.50;3.30;;;2.90;5.50;;;;;;6232188;28;20270;-58
2021/12/20 00:11:20;;;;;;;3.70;3.40;;;2.60;5.70;;;;;;6236756;28;20833;-59
2021/12/20 00:14:22;;;;;;;3.80;3.50;;;2.80;6.30;;;;;;6229127;28;20230;-59
2021/12/20 00:17:25;;;;;;;3.70;3.40;;;2.80;7.10;;;;;;6234479;28;20367;-59
2021/12/20 00:20:29;;;;;;;3.57;3.40;;;2.60;6.80;;;;;;6232875;28;20238;-58
2021/12/20 00:23:32;;;;;;;4.07;3.67;;;2.50;6.70;;;;;;6229204;28;20322;-59
2021/12/20 00:26:35;;;;;;;3.57;3.37;;;2.40;7.60;;;;;;6235314;28;20248;-59
2021/12/20 00:29:38;;;;;;;3.60;3.30;;;2.80;7.10;;;;;;6232686;28;20250;-59
2021/12/20 00:32:41;;;;;;;3.60;3.40;;;2.50;8.40;;;;;;6235895;28;20333;-58
2021/12/20 00:35:46;;;;;;;3.60;3.40;;;2.20;7.80;;;;;;6236123;28;20270;-60
2021/12/20 00:42:09;;;;;;;3.50;3.40;;;2.60;10.10;;;;;;6210861;28;20305;-59
2021/12/20 00:45:13;;;;;;;4.17;3.70;;;2.60;9.50;;;;;;6214689;28;20369;-58
2021/12/20 00:48:16;;;;;;;3.80;3.60;;;2.30;9.40;;;;;;6202542;28;20886;-62
2021/12/20 00:51:20;;;;;;;3.30;3.20;;;2.40;9.20;;;;;;6200459;28;20246;-59
2021/12/20 00:54:23;;;;;;;4.10;3.83;;;2.30;9.30;;;;;;6211438;28;20357;-58
2021/12/20 00:57:25;;;;;;;3.77;3.47;;;2.30;10.30;;;;;;6212527;28;20279;-59
2021/12/20 01:00:30;;;;;;;6.10;3.83;;;2.30;10.70;;;;;;6199429;28;20319;-57
2021/12/20 01:03:34;;;;;;;3.43;3.33;;;2.20;10.40;;;;;;6223602;28;20277;-58
2021/12/20 01:06:38;;;;;;;4.33;3.90;;;2.30;11.00;;;;;;6222233;28;20883;-60
2021/12/20 01:09:41;;;;;;;3.43;3.33;;;2.10;10.20;;;;;;6231225;28;20270;-57
2021/12/20 01:12:46;;;;;;;4.00;3.70;;;2.30;10.50;;;;;;6210815;28;20239;-58
2021/12/20 01:15:51;;;;;;;5.30;3.70;;;2.10;10.40;;;;;;6201129;28;20784;-56
2021/12/20 01:18:54;;;;;;;5.37;3.53;;;2.20;11.30;;;;;;6233275;28;20293;-57
2021/12/20 01:21:58;;;;;;;4.20;3.80;;;2.20;11.80;;;;;;6233470;28;20808;-59
2021/12/20 01:25:01;;;;;;;4.33;3.63;;;2.20;11.30;;;;;;6233242;28;20365;-58
2021/12/20 01:28:05;;;;;;;3.97;3.60;;;2.10;11.40;;;;;;6228530;28;20223;-59
2021/12/20 01:31:08;;;;;;;3.87;3.57;;;2.20;12.10;;;;;;6234542;28;20254;-60
2021/12/20 01:34:10;;;;;;;4.80;3.40;;;2.10;12.60;;;;;;6234083;28;20735;-57
2021/12/20 01:37:15;;;;;;;3.93;3.40;;;2.10;12.60;;;;;;6225603;28;20381;-59
2021/12/20 01:40:19;;;;;;;5.77;4.13;;;2.00;11.80;;;;;;6233542;28;20246;-57
2021/12/20 01:43:22;;;;;;;3.43;3.33;;;2.10;12.00;;;;;;6233358;28;20718;-58
2021/12/20 01:46:25;;;;;;;3.93;3.70;;;2.10;11.90;;;;;;6231317;28;20273;-59
2021/12/20 01:49:30;;;;;;;3.37;3.23;;;2.20;12.00;;;;;;6233584;28;20321;-58
2021/12/20 01:52:40;;;;;;;3.70;3.60;;;2.10;12.90;;;;;;6226692;28;20284;-59
2021/12/20 01:55:43;;;;;;;4.10;3.80;;;2.00;12.90;;;;;;6205046;28;20827;-58
2021/12/20 01:58:45;;;;;;;3.33;3.27;;;1.90;13.00;;;;;;6200000;28;20286;-58
2021/12/20 02:01:49;;;;;;;3.20;3.07;;;2.00;12.20;;;;;;6196214;28;20314;-58
2021/12/20 02:04:59;;;;;;;3.87;3.50;;;1.90;12.90;;;;;;6189769;28;20365;-55
2021/12/20 02:08:15;;;;;;;4.43;3.37;;;2.00;13.40;;;;;;6226681;28;20542;-59
2021/12/20 02:11:20;;;;;;;4.43;4.00;;;1.80;13.60;;;;;;6232900;28;20249;-58
2021/12/20 02:14:23;;;;;;;3.30;3.20;;;1.80;13.70;;;;;;6232544;28;20245;-59
2021/12/20 02:17:25;;;;;;;6.03;3.70;;;1.80;12.60;;;;;;6226908;28;20303;-58
2021/12/20 02:20:32;;;;;;;3.53;3.43;;;2.00;13.00;;;;;;6231978;28;20380;-58
2021/12/20 02:23:34;;;;;;;3.40;3.20;;;1.90;13.00;;;;;;6198952;28;20389;-58
2021/12/20 02:26:37;;;;;;;3.83;3.60;;;1.80;12.80;;;;;;6223474;28;20556;-59
2021/12/20 02:30:00;;;;;;;3.40;3.20;;;2.10;13.80;;;;;;6228174;28;20230;-58
2021/12/20 02:39:47;;;;;;;4.10;3.80;;;2.00;14.10;;;;;;6222318;28;20239;-58
2021/12/20 02:42:51;;;;;;;4.10;3.50;;;1.80;15.20;;;;;;6229212;28;20768;-58
2021/12/20 02:45:58;;;;;;;5.17;3.37;;;1.90;15.10;;;;;;6220723;28;20330;-59
2021/12/20 02:49:01;;;;;;;4.47;3.80;;;1.70;14.80;;;;;;6227991;28;20385;-59
2021/12/20 02:52:08;;;;;;;3.83;3.47;;;1.90;15.50;;;;;;6199993;28;20276;-64
2021/12/20 02:55:11;;;;;;;6.00;4.00;;;1.70;15.40;;;;;;6205446;28;20236;-59
2021/12/20 02:58:14;;;;;;;3.90;3.70;;;1.80;16.40;;;;;;6217026;28;20235;-59
2021/12/20 03:01:18;;;;;;;5.30;3.57;;;1.80;16.00;;;;;;6219761;28;20425;-59
2021/12/20 03:04:21;;;;;;;3.73;3.53;;;1.70;16.70;;;;;;6220808;28;20257;-59
2021/12/20 03:07:27;;;;;;;3.90;3.60;;;2.00;15.80;;;;;;6214273;28;20334;-59
2021/12/20 03:10:31;;;;;;;3.87;3.53;;;1.70;15.50;;;;;;6219368;28;20725;-58
2021/12/20 03:13:33;;;;;;;3.90;3.70;;;1.50;16.10;;;;;;6224259;28;20525;-57
2021/12/20 03:16:36;;;;;;;4.23;3.90;;;1.50;16.60;;;;;;6225515;28;20798;-58
2021/12/20 03:19:40;;;;;;;3.70;3.60;;;1.50;16.60;;;;;;6223620;28;20235;-58
2021/12/20 03:22:44;;;;;;;5.77;3.90;;;1.90;16.90;;;;;;6225797;28;20325;-59
2021/12/20 03:25:47;;;;;;;4.23;3.90;;;1.50;17.10;;;;;;6209981;28;20320;-59
2021/12/20 03:28:51;;;;;;;6.13;4.00;;;1.60;16.70;;;;;;6195429;28;20545;-59
2021/12/20 03:31:53;;;;;;;7.27;3.67;;;1.80;16.80;;;;;;6227276;28;20238;-59
2021/12/20 03:34:56;;;;;;;4.07;3.53;;;1.70;17.80;;;;;;6235399;28;20325;-58
2021/12/20 03:38:00;;;;;;;4.00;3.63;;;1.70;17.80;;;;;;6228157;28;20246;-57
2021/12/20 03:41:03;;;;;;;6.23;3.97;;;1.70;18.00;;;;;;6230476;28;20613;-58
2021/12/20 03:44:07;;;;;;;4.37;3.90;;;1.70;18.20;;;;;;6235395;28;20231;-59
2021/12/20 03:47:10;;;;;;;4.17;3.40;;;1.70;17.40;;;;;;6233968;28;20269;-57
2021/12/20 03:50:14;;;;;;;9.37;3.87;;;1.80;18.30;;;;;;6234569;28;20265;-59
2021/12/20 03:53:18;;;;;;;3.80;3.43;;;1.70;18.30;;;;;;6229162;28;20245;-60
2021/12/20 03:56:21;;;;;;;4.00;3.70;;;1.60;18.80;;;;;;6233426;28;20244;-58
2021/12/20 03:59:24;;;;;;;4.73;4.43;;;1.80;19.70;;;;;;6235518;28;20838;-59
2021/12/20 04:02:27;;;;;;;6.33;3.90;;;1.60;20.20;;;;;;6235126;28;20234;-59
2021/12/20 04:05:30;;;;;;;4.10;3.70;;;1.40;20.30;;;;;;6233086;28;20596;-58
2021/12/20 04:08:34;;;;;;;3.73;3.53;;;1.50;20.80;;;;;;6234230;28;20794;-58
2021/12/20 04:11:37;;;;;;;5.13;3.67;;;1.50;20.80;;;;;;6234598;28;20227;-58
2021/12/20 04:14:40;;;;;;;4.10;3.90;;;1.70;21.90;;;;;;6227028;28;20318;-58
2021/12/20 04:17:43;;;;;;;4.87;3.60;;;1.40;22.60;;;;;;6234003;28;20234;-58
2021/12/20 04:20:46;;;;;;;6.57;4.03;;;1.70;23.50;;;;;;6235075;28;20242;-58
2021/12/20 04:23:50;;;;;;;5.77;4.07;;;1.50;23.80;;;;;;6228624;28;20234;-59
2021/12/20 04:26:52;;;;;;;5.87;4.03;;;1.40;23.60;;;;;;6227790;28;20724;-59
2021/12/20 04:29:56;;;;;;;5.17;4.53;;;1.50;23.80;;;;;;6234495;28;20606;-58
2021/12/20 04:32:59;;;;;;;11.77;4.20;;;1.20;24.20;;;;;;6213499;28;20421;-59
2021/12/20 04:36:02;;;;;;;4.53;3.73;;;1.40;24.70;;;;;;6230467;28;20250;-59
2021/12/20 04:39:09;;;;;;;7.93;3.90;;;1.40;26.00;;;;;;6232955;28;20384;-59
2021/12/20 04:42:12;;;;;;;4.70;4.10;;;1.60;25.60;;;;;;6208742;28;20311;-58
2021/12/20 04:45:15;;;;;;;5.60;3.90;;;1.40;25.60;;;;;;6232228;28;20279;-64
2021/12/20 04:48:18;;;;;;;4.40;4.00;;;1.60;26.60;;;;;;6233281;28;20355;-59
2021/12/20 04:51:20;;;;;;;7.70;3.97;;;1.40;27.30;;;;;;6226568;28;20394;-59
2021/12/20 04:54:25;;;;;;;7.47;3.97;;;1.50;27.00;;;;;;6232768;28;20250;-58
2021/12/20 04:57:28;;;;;;;7.03;4.40;;;1.40;28.10;;;;;;6233803;28;20615;-62
2021/12/20 05:00:34;;;;;;;8.77;4.47;;;1.30;28.10;;;;;;6234940;28;20526;-58
2021/12/20 05:03:37;;;;;;;9.93;4.17;;;1.50;28.50;;;;;;6233028;28;20744;-59
2021/12/20 05:06:40;;;;;;;4.33;4.00;;;1.30;28.90;;;;;;6206863;28;20251;-58
2021/12/20 05:09:44;;;;;;;4.50;4.10;;;1.20;29.20;;;;;;6212900;28;20262;-59
2021/12/20 05:12:47;;;;;;;5.43;4.93;;;1.40;29.10;;;;;;6216586;28;20297;-58
2021/12/20 05:15:50;;;;;;;6.33;4.27;;;1.40;29.60;;;;;;6233420;28;20250;-58
2021/12/20 05:18:53;;;;;;;5.63;4.40;;;1.50;30.30;;;;;;6234365;28;20435;-58
2021/12/20 05:21:56;;;;;;;8.60;4.50;;;1.40;30.10;;;;;;6234535;28;20242;-57
2021/12/20 05:25:00;;;;;;;6.03;4.63;;;1.30;30.90;;;;;;6227069;28;20329;-58
2021/12/20 05:28:03;;;;;;;7.70;4.27;;;1.10;30.70;;;;;;6231858;28;20242;-59
2021/12/20 05:31:06;;;;;;;5.60;4.93;;;1.10;31.10;;;;;;6234588;28;20231;-58
2021/12/20 05:34:09;;;;;;;10.00;4.53;;;1.40;31.70;;;;;;6231462;28;20333;-58
2021/12/20 05:37:13;;;;;;;8.37;4.37;;;1.30;31.40;;;;;;6232811;28;20352;-58
2021/12/20 05:40:18;;;;;;;8.37;4.50;;;1.20;31.60;;;;;;6231222;28;20770;-60
2021/12/20 05:43:21;;;;;;;8.47;4.87;;;1.30;31.40;;;;;;6238323;28;20261;-59
2021/12/20 05:46:23;;;;;;;8.23;4.57;;;1.40;31.80;;;;;;6229844;28;20520;-59
2021/12/20 05:49:26;;;;;;;5.03;4.43;;;1.20;32.90;;;;;;6227164;28;20324;-58
2021/12/20 05:52:30;;;;;;;6.40;4.40;;;0.70;30.90;;;;;;6210432;28;20241;-58
2021/12/20 05:55:34;;;;;;;9.17;4.17;;;1.50;32.10;;;;;;6231673;28;20265;-59
2021/12/20 05:58:37;;;;;;;5.93;4.20;;;1.40;31.30;;;;;;6230041;28;20246;-59
2021/12/20 06:01:39;;;;;;;4.03;3.73;;;1.60;32.10;;;;;;6239000;28;20238;-59
2021/12/20 06:04:42;;;;;;;4.20;4.00;;;1.70;31.30;;;;;;6230732;28;20326;-59
2021/12/20 06:07:45;;;;;;;3.80;3.60;;;1.70;29.80;;;;;;6239404;28;20624;-59
2021/12/20 06:10:49;;;;;;;4.20;4.00;;;1.50;30.50;;;;;;6229776;28;20305;-59
2021/12/20 06:13:52;;;;;;;5.80;4.33;;;1.40;30.40;;;;;;6229844;28;20431;-58
2021/12/20 06:16:57;;;;;;;7.13;4.13;;;1.50;31.90;;;;;;6228201;28;20797;-58
2021/12/20 06:20:00;;;;;;;6.57;4.10;;;1.40;31.30;;;;;;6224627;28;20288;-59
2021/12/20 06:23:03;;;;;;;5.03;4.10;;;1.30;30.60;;;;;;6236707;28;20296;-59
2021/12/20 06:26:07;;;;;;;7.03;4.17;;;1.60;32.00;;;;;;6228567;28;20464;-60
2021/12/20 06:29:09;;;;;;;7.50;4.77;;;1.50;31.30;;;;;;6234599;28;20239;-59
2021/12/20 06:32:12;;;;;;;4.40;4.10;;;1.70;31.40;;;;;;6235223;28;20404;-59
2021/12/20 06:35:15;;;;;;;4.83;4.60;;;1.40;31.60;;;;;;6238274;28;20325;-60
2021/12/20 06:38:20;;;;;;;5.83;5.07;;;1.60;31.00;;;;;;6227515;28;20252;-58
2021/12/20 06:41:24;;;;;;;6.43;4.10;;;1.30;31.00;;;;;;6229388;28;20342;-59
2021/12/20 06:44:27;;;;;;;6.27;4.83;;;0.80;31.50;;;;;;6232152;28;20463;-60
2021/12/20 06:47:30;;;;;;;6.07;5.50;;;1.70;31.70;;;;;;6231537;28;20399;-58
2021/12/20 06:50:33;;;;;;;4.67;4.27;;;1.60;31.00;;;;;;6228749;28;20785;-57
2021/12/20 06:53:36;;;;;;;5.20;4.20;;;1.30;31.90;;;;;;6234026;28;20291;-58
2021/12/20 06:56:40;;;;;;;4.77;4.47;;;1.50;31.90;;;;;;6227822;28;20609;-60
2021/12/20 06:59:42;;;;;;;4.37;4.07;;;1.70;30.50;;;;;;6230603;28;20504;-60
2021/12/20 07:02:45;;;;;;;5.23;4.83;;;1.60;30.00;;;;;;6236033;28;20316;-58
2021/12/20 07:05:49;;;;;;;5.23;4.43;;;1.40;29.70;;;;;;6232706;28;20246;-58
2021/12/20 07:08:52;;;;;;;5.17;4.27;;;1.70;30.70;;;;;;6238638;28;20528;-58
2021/12/20 07:11:56;;;;;;;6.30;4.00;;;1.70;30.00;;;;;;6209020;28;20310;-58
2021/12/20 07:14:59;;;;;;;5.17;4.10;;;1.60;30.10;;;;;;6245616;28;20321;-55
2021/12/20 07:18:02;;;;;;;5.07;4.57;;;1.50;30.20;;;;;;6238021;28;20520;-60
2021/12/20 07:21:04;;;;;;;8.67;4.57;;;1.70;31.30;;;;;;6234616;28;20241;-58
2021/12/20 07:24:07;;;;;;;4.47;4.00;;;1.50;30.00;;;;;;6235187;28;20384;-60
2021/12/20 07:27:12;;;;;;;9.30;4.53;;;1.60;29.90;;;;;;6232938;28;20298;-59
2021/12/20 07:30:15;;;;;;;6.27;4.10;;;1.70;30.70;;;;;;6239561;28;20833;-58
2021/12/20 07:33:18;;;;;;;10.37;5.47;;;1.30;32.00;;;;;;6234449;28;20237;-59
2021/12/20 07:36:22;;;;;;;6.97;4.20;;;1.40;31.20;;;;;;6233194;28;20234;-58
2021/12/20 07:39:24;;;;;;;4.50;4.10;;;1.00;30.10;;;;;;6241724;28;20246;-58
2021/12/20 07:42:28;;;;;;;7.13;4.57;;;1.50;29.80;;;;;;6238858;28;20286;-58
2021/12/20 07:45:32;;;;;;;6.03;4.50;;;1.80;28.80;;;;;;6241038;28;20235;-59
2021/12/20 07:48:35;;;;;;;8.03;4.40;;;1.80;28.90;;;;;;6239132;28;20235;-59
2021/12/20 07:51:38;;;;;;;9.53;4.80;;;1.70;29.00;;;;;;6239655;28;20238;-59
2021/12/20 07:54:41;;;;;;;5.00;4.30;;;1.80;29.40;;;;;;6232560;28;20353;-58
2021/12/20 07:57:45;;;;;;;8.77;4.30;;;1.90;29.20;;;;;;6238495;28;20372;-58
2021/12/20 08:00:48;;;;;;;5.03;4.43;;;1.60;28.60;;;;;;6242158;28;20246;-58
2021/12/20 08:03:51;;;;;;;4.87;4.47;;;1.80;28.40;;;;;;6231061;28;20599;-59
2021/12/20 08:06:54;;;;;;;4.50;4.20;;;1.80;28.40;;;;;;6236016;28;20242;-61
2021/12/20 08:10:15;;;;;;;6.83;4.17;;;2.00;27.40;;;;;;6216967;28;20322;-57
2021/12/20 08:13:19;;;;;;;11.63;4.87;;;2.00;28.30;;;;;;6230540;28;20226;-59
2021/12/20 08:16:22;;;;;;;4.53;4.13;;;2.10;26.30;;;;;;6233217;28;20243;-59
2021/12/20 08:19:24;;;;;;;5.23;4.20;;;1.80;25.90;;;;;;6238257;28;20310;-58
2021/12/20 08:22:27;;;;;;;8.37;4.43;;;2.10;25.80;;;;;;6240972;28;20222;-59
2021/12/20 08:25:30;;;;;;;5.30;4.30;;;2.00;25.30;;;;;;6236355;28;20311;-58
2021/12/20 08:28:35;;;;;;;6.50;4.67;;;2.40;25.50;;;;;;6235598;28;20720;-59
2021/12/20 08:31:39;;;;;;;5.37;3.90;;;2.30;24.70;;;;;;6237670;28;20261;-58
2021/12/20 08:34:42;;;;;;;4.93;3.83;;;2.10;24.50;;;;;;6223216;28;20381;-58
2021/12/20 08:37:45;;;;;;;9.93;4.53;;;2.50;24.30;;;;;;6242195;28;20260;-58
2021/12/20 08:40:48;;;;;;;4.50;4.00;;;2.40;22.90;;;;;;6241119;28;20731;-59
2021/12/20 08:43:52;;;;;;;7.53;4.50;;;2.60;22.10;;;;;;6235768;28;20243;-60
2021/12/20 08:46:56;;;;;;;4.73;4.43;;;2.60;21.20;;;;;;6228934;28;20325;-59
2021/12/20 08:49:59;;;;;;;4.13;3.93;;;2.70;21.40;;;;;;6242078;28;20254;-59
2021/12/20 08:53:01;;;;;;;5.03;4.60;;;2.50;21.10;;;;;;6240438;28;20708;-59
2021/12/20 08:56:05;;;;;;;5.07;4.63;;;2.50;19.10;;;;;;6235326;28;20721;-60
2021/12/20 08:59:09;;;;;;;5.40;4.20;;;2.50;19.60;;;;;;6242752;28;20379;-59
2021/12/20 09:02:13;;;;;;;7.27;4.10;;;3.00;17.80;;;;;;6227553;28;20259;-60
2021/12/20 09:05:16;;;;;;;5.10;4.40;;;3.00;18.00;;;;;;6232015;28;20289;-58
2021/12/20 09:08:20;;;;;;;4.50;3.80;;;3.00;16.60;;;;;;6240475;28;20364;-58
2021/12/20 09:11:23;;;;;;;4.50;4.10;;;3.10;15.80;;;;;;6240734;28;20312;-59
2021/12/20 09:14:34;;;;;;;6.87;4.43;;;3.00;16.10;;;;;;6235873;28;20318;-61
2021/12/20 09:17:37;;;;;;;5.77;4.20;;;3.20;15.10;;;;;;6234578;28;20732;-60
2021/12/20 09:20:40;;;;;;;4.77;4.00;;;3.10;16.00;;;;;;6234820;28;20756;-59
2021/12/20 09:23:44;;;;;;;5.03;4.50;;;3.10;15.30;;;;;;6233099;28;20241;-59
2021/12/20 09:26:47;;;;;;;4.93;4.30;;;2.80;16.60;;;;;;6228101;28;20361;-60
2021/12/20 09:29:51;;;;;;;8.43;4.40;;;3.10;15.50;;;;;;6234651;28;20316;-59
2021/12/20 09:32:53;;;;;;;4.73;4.33;;;3.40;16.20;;;;;;6237444;28;20292;-60
2021/12/20 09:35:56;;;;;;;5.30;4.60;;;3.30;16.80;;;;;;6232078;28;20242;-60
2021/12/20 09:39:01;;;;;;;5.70;4.63;;;3.50;15.40;;;;;;6235490;28;20289;-59
2021/12/20 09:42:04;;;;;;;5.00;4.53;;;3.40;12.80;;;;;;6234768;28;20494;-60
2021/12/20 09:45:10;;;;;;;5.83;4.33;;;3.60;12.60;;;;;;6233473;28;20277;-60
2021/12/20 09:48:13;;;;;;;4.33;3.83;;;3.50;11.50;;;;;;6232654;28;20239;-58
2021/12/20 09:51:17;;;;;;;4.10;3.90;;;3.60;12.70;;;;;;6231576;28;20239;-59
2021/12/20 09:54:20;;;;;;;6.00;4.00;;;3.50;10.00;;;;;;6222153;28;20548;-56
2021/12/20 09:57:24;;;;;;;8.50;4.70;;;3.70;10.10;;;;;;6232529;28;20769;-59
2021/12/20 10:00:28;;;;;;;3.80;3.60;;;3.70;8.60;;;;;;6227631;28;20721;-61
2021/12/20 10:03:31;;;;;;;4.47;4.00;;;3.80;9.50;;;;;;6234324;28;21187;-58
2021/12/20 10:06:34;;;;;;;4.63;4.20;;;3.70;9.00;;;;;;6235691;28;20329;-58
2021/12/20 10:09:39;;;;;;;9.33;4.53;;;3.80;7.90;;;;;;6232636;28;20321;-58
2021/12/20 10:12:49;;;;;;;5.73;4.30;;;3.90;9.30;;;;;;6228820;28;20254;-59
2021/12/20 10:15:56;;;;;;;4.53;4.10;;;4.00;8.10;;;;;;6234664;28;20246;-58
2021/12/20 10:19:00;;;;;;;4.40;4.00;;;3.80;8.50;;;;;;6235737;28;20412;-59
2021/12/20 10:22:22;;;;;;;4.27;3.97;;;3.90;6.40;;;;;;6235533;28;20234;-59
2021/12/20 10:25:28;;;;;;;5.93;4.27;;;3.90;6.10;;;;;;6228336;28;20267;-60
2021/12/20 10:28:34;;;;;;;4.50;4.10;;;3.90;8.30;;;;;;6235273;28;20322;-58
2021/12/20 10:31:38;;;;;;;4.57;4.00;;;3.90;7.50;;;;;;6238661;28;20368;-58
2021/12/20 10:34:41;;;;;;;5.00;4.33;;;3.90;8.80;;;;;;6231299;28;20364;-58
2021/12/20 10:37:45;;;;;;;4.20;3.80;;;3.80;7.90;;;;;;6240171;28;20248;-58
2021/12/20 10:40:49;;;;;;;5.00;4.03;;;4.30;7.70;;;;;;6240462;28;20261;-59
2021/12/20 10:43:55;;;;;;;4.20;3.90;;;4.20;7.90;;;;;;6216083;28;20267;-58
2021/12/20 10:47:01;;;;;;;6.33;4.00;;;4.20;7.20;;;;;;6230771;28;20814;-58
2021/12/20 10:50:26;;;;;;;5.13;3.90;;;4.40;5.10;;;;;;6242901;28;20672;-58
2021/12/20 10:53:29;;;;;;;5.53;4.17;;;4.40;3.60;;;;;;6236251;28;20314;-59
2021/12/20 10:56:33;;;;;;;5.70;4.10;;;4.50;3.20;;;;;;6211314;28;20418;-59
2021/12/20 10:59:38;;;;;;;5.40;3.97;;;4.90;2.20;;;;;;6232283;28;20226;-59
2021/12/20 11:03:19;;;;;;;4.23;3.93;;;4.80;2.60;;;;;;6232712;28;20238;-59
2021/12/20 11:06:36;;;;;;;4.30;3.90;;;4.80;2.20;;;;;;6235633;28;20231;-58
2021/12/20 11:09:41;;;;;;;7.17;4.03;;;4.90;1.00;;;;;;6244170;28;20231;-59
2021/12/20 11:12:45;;;;;;;5.93;4.33;;;4.80;1.00;;;;;;6212584;28;20674;-53
2021/12/20 11:15:48;;;;;;;6.23;4.03;;;4.80;1.00;;;;;;6228517;28;20247;-56
2021/12/20 11:19:09;;;;;;;4.47;4.17;;;4.90;1.00;;;;;;6219765;28;20365;-59
2021/12/20 11:22:14;;;;;;;5.23;3.90;;;4.90;1.00;;;;;;6216055;28;20312;-58
2021/12/20 11:25:17;;;;;;;5.07;4.23;;;5.00;1.00;;;;;;6213659;28;20317;-62
2021/12/20 11:28:20;;;;;;;4.70;4.33;;;4.90;1.00;;;;;;6207634;28;20323;-59
2021/12/20 11:31:22;;;;;;;5.40;4.07;;;5.20;1.00;;;;;;6213743;28;20243;-59
2021/12/20 11:34:26;;;;;;;4.97;4.50;;;5.20;1.00;;;;;;6220283;28;20756;-58
2021/12/20 11:37:30;;;;;;;3.97;3.77;;;5.20;1.00;;;;;;6233917;28;20238;-58
2021/12/20 11:40:32;;;;;;;7.33;4.20;;;5.10;1.00;;;;;;6235479;28;20984;-58
2021/12/20 11:43:35;;;;;;;5.93;3.93;;;5.10;1.00;;;;;;6228076;28;20312;-61
2021/12/20 11:46:46;;;;;;;6.23;4.30;;;5.30;1.00;;;;;;6216720;28;20807;-58
2021/12/20 11:49:58;;;;;;;4.10;3.90;;;5.10;1.00;;;;;;6238372;28;20636;-58
2021/12/20 11:53:06;;;;;;;4.30;3.97;;;4.90;1.00;;;;;;6238881;28;20273;-59
2021/12/20 11:56:10;;;;;;;9.83;4.37;;;5.00;1.00;;;;;;6230155;28;20342;-60
2021/12/20 11:59:12;;;;;;;4.70;4.27;;;5.20;1.00;;;;;;6237464;28;20238;-59
2021/12/20 12:02:23;;;;;;;4.57;4.27;;;5.10;1.00;;;;;;6228355;28;20859;-60
2021/12/20 12:05:41;;;;;;;4.53;4.23;;;4.90;1.00;;;;;;6244642;28;20241;-59
2021/12/20 12:08:55;;;;;;;4.47;4.10;;;5.00;1.00;;;;;;6231377;28;20866;-61
2021/12/20 12:12:23;;;;;;;4.40;4.00;;;4.90;1.00;;;;;;6234392;28;20238;-55
2021/12/20 12:15:54;;;;;;;4.67;4.23;;;5.00;1.00;;;;;;6235297;28;20231;-58
2021/12/20 12:18:58;;;;;;;7.27;4.43;;;4.80;1.00;;;;;;6235920;28;20345;-58
2021/12/20 12:22:02;;;;;;;4.50;4.27;;;4.60;1.00;;;;;;6235597;28;20317;-58
2021/12/20 12:25:08;;;;;;;5.20;4.20;;;5.00;1.00;;;;;;6225685;28;20661;-58
2021/12/20 12:28:13;;;;;;;6.17;4.10;;;4.90;1.00;;;;;;6243034;28;20238;-57
2021/12/20 12:31:17;;;;;;;4.50;4.20;;;4.90;1.00;;;;;;6240527;28;20304;-58
2021/12/20 12:34:20;;;;;;;4.40;4.17;;;4.90;1.00;;;;;;6233850;28;20242;-58
2021/12/20 12:37:33;;;;;;;5.17;3.97;;;4.60;1.00;;;;;;6240000;28;20329;-58
2021/12/20 12:40:36;;;;;;;5.20;4.57;;;4.70;1.40;;;;;;6238395;28;20312;-58
2021/12/20 12:43:54;;;;;;;4.27;4.07;;;4.70;2.60;;;;;;6241970;28;20905;-58
2021/12/20 12:47:12;;;;;;;8.10;4.63;;;4.60;3.60;;;;;;6232470;28;20325;-59
2021/12/20 12:50:26;;;;;;;4.57;4.27;;;4.40;3.70;;;;;;6223424;28;20246;-60
2021/12/20 12:53:40;;;;;;;6.63;4.20;;;4.60;4.90;;;;;;6132013;28;20252;-59
2021/12/20 12:56:43;;;;;;;5.03;4.27;;;4.60;3.60;;;;;;6205938;28;20256;-59
2021/12/20 13:00:04;;;;;;;4.93;4.43;;;4.70;3.70;;;;;;6212099;28;20246;-59
2021/12/20 13:03:16;;;;;;;6.03;4.33;;;4.40;5.70;;;;;;6190650;28;20748;-58
2021/12/20 13:06:20;;;;;;;4.83;4.10;;;4.60;6.10;;;;;;6194348;28;20252;-58
2021/12/20 13:09:32;;;;;;;10.10;4.77;;;4.50;6.00;;;;;;6205803;28;20235;-58
2021/12/20 13:12:41;;;;;;;5.60;4.20;;;4.30;6.40;;;;;;6199920;28;20865;-59
2021/12/20 13:15:48;;;;;;;7.60;4.40;;;4.40;6.60;;;;;;6196759;28;20236;-58
2021/12/20 13:18:58;;;;;;;5.87;4.17;;;4.30;8.00;;;;;;6202576;28;20331;-60
2021/12/20 13:22:04;;;;;;;4.13;3.97;;;4.60;7.80;;;;;;6192366;28;20328;-58
2021/12/20 13:25:07;;;;;;;6.93;4.57;;;4.40;8.30;;;;;;6197582;28;20243;-58
2021/12/20 13:28:13;;;;;;;6.83;4.70;;;4.40;8.20;;;;;;6197978;28;20520;-58
2021/12/20 13:31:18;;;;;;;4.83;4.57;;;4.30;8.60;;;;;;6197645;28;20322;-60
2021/12/20 13:34:22;;;;;;;5.93;4.60;;;4.50;9.40;;;;;;6193030;28;20318;-58
2021/12/20 13:37:31;;;;;;;4.43;4.10;;;4.40;9.90;;;;;;6198446;28;20346;-58
2021/12/20 13:40:43;;;;;;;7.20;4.63;;;4.40;9.60;;;;;;6198500;28;20272;-60
2021/12/20 13:43:47;;;;;;;6.63;4.40;;;4.30;8.60;;;;;;6192064;28;20263;-58
2021/12/20 13:46:50;;;;;;;4.73;4.27;;;4.20;9.30;;;;;;6195636;28;20267;-59
2021/12/20 13:49:54;;;;;;;5.00;4.40;;;4.20;9.90;;;;;;6197832;28;20352;-60
2021/12/20 13:52:57;;;;;;;6.70;4.73;;;4.30;10.10;;;;;;6183893;28;20245;-58
2021/12/20 13:56:02;;;;;;;6.57;5.20;;;4.60;10.80;;;;;;6197301;28;20489;-60
2021/12/20 13:59:05;;;;;;;7.20;5.13;;;4.20;10.50;;;;;;6196434;28;20247;-59
2021/12/20 14:02:11;;;;;;;9.33;4.67;;;4.00;11.00;;;;;;6198395;28;20575;-62
2021/12/20 14:05:16;;;;;;;4.83;4.40;;;4.30;12.20;;;;;;6195195;28;20627;-60
2021/12/20 14:08:21;;;;;;;5.60;4.93;;;4.20;13.10;;;;;;6201537;28;20371;-61
2021/12/20 14:11:24;;;;;;;5.90;4.23;;;4.30;13.80;;;;;;6209166;28;20399;-60
2021/12/20 14:14:27;;;;;;;4.67;4.27;;;4.30;14.00;;;;;;6195571;28;20236;-57
2021/12/20 14:17:30;;;;;;;9.17;5.10;;;4.20;14.40;;;;;;6196158;28;20261;-60
2021/12/20 14:20:43;;;;;;;9.50;4.80;;;4.30;14.20;;;;;;6195892;28;20231;-59
2021/12/20 14:23:49;;;;;;;10.77;4.63;;;4.30;14.50;;;;;;6185744;28;20477;-58
2021/12/20 14:27:03;;;;;;;5.60;4.43;;;4.10;14.70;;;;;;6184683;28;22210;-59
2021/12/20 14:30:22;;;;;;;9.90;4.33;;;4.30;14.70;;;;;;6205185;28;20234;-60
2021/12/20 14:33:27;;;;;;;6.73;6.00;;;4.40;14.70;;;;;;6192628;28;20301;-59
2021/12/20 14:36:37;;;;;;;6.37;4.53;;;4.00;15.10;;;;;;6196129;28;20235;-60
2021/12/20 14:39:42;;;;;;;5.97;5.10;;;4.20;16.20;;;;;;6197168;28;20614;-59
2021/12/20 14:43:03;;;;;;;5.90;5.30;;;4.10;16.80;;;;;;6197962;28;20276;-60
2021/12/20 14:46:18;;;;;;;10.47;5.13;;;4.20;17.70;;;;;;6199252;28;20642;-58
2021/12/20 14:49:24;;;;;;;6.67;5.07;;;4.10;17.50;;;;;;6198084;28;20311;-60
2021/12/20 14:52:30;;;;;;;6.83;5.37;;;4.20;17.80;;;;;;6191429;28;20499;-58
2021/12/20 14:55:34;;;;;;;8.03;5.97;;;4.10;18.20;;;;;;6193072;28;20736;-60
2021/12/20 14:58:37;;;;;;;6.03;4.87;;;3.50;18.00;;;;;;6217517;28;20331;-58
2021/12/20 15:01:40;;;;;;;7.97;4.70;;;4.10;18.30;;;;;;6199920;28;20311;-60
2021/12/20 15:04:44;;;;;;;6.70;5.13;;;3.90;18.20;;;;;;6195510;28;20286;-58
2021/12/20 15:07:48;;;;;;;9.17;5.40;;;4.10;19.70;;;;;;6197772;28;20474;-59
2021/12/20 15:10:52;;;;;;;9.37;5.20;;;4.00;20.00;;;;;;6196111;28;20244;-59
2021/12/20 15:13:54;;;;;;;10.23;5.03;;;4.00;20.30;;;;;;6199480;28;20616;-59
2021/12/20 15:16:57;;;;;;;6.07;4.80;;;3.90;19.70;;;;;;6191336;28;20651;-59
2021/12/20 15:20:00;;;;;;;4.97;4.67;;;4.00;20.30;;;;;;6203050;28;21836;-59
2021/12/20 15:23:04;;;;;;;5.37;4.90;;;4.20;19.40;;;;;;6204873;28;20231;-59
2021/12/20 15:26:07;;;;;;;6.67;5.20;;;4.20;20.10;;;;;;6191220;28;20757;-58
2021/12/20 15:29:10;;;;;;;6.17;5.63;;;4.00;20.30;;;;;;6199039;28;20295;-58
2021/12/20 15:32:13;;;;;;;7.50;4.77;;;3.90;21.80;;;;;;6204434;28;20282;-59
2021/12/20 15:35:17;;;;;;;10.43;5.43;;;3.70;21.90;;;;;;6202088;28;20258;-59
2021/12/20 15:38:21;;;;;;;6.90;5.03;;;4.00;22.40;;;;;;6200793;28;20247;-56
2021/12/20 15:41:25;;;;;;;7.07;5.70;;;4.00;22.20;;;;;;6198090;28;20247;-58
2021/12/20 15:44:29;;;;;;;8.27;5.77;;;3.90;23.50;;;;;;6204522;28;20239;-58
2021/12/20 15:47:32;;;;;;;6.23;5.33;;;3.60;23.30;;;;;;6199711;28;20331;-58
2021/12/20 15:50:36;;;;;;;8.97;4.93;;;3.80;24.30;;;;;;6204279;28;20239;-58
2021/12/20 15:53:40;;;;;;;5.27;4.90;;;3.50;25.50;;;;;;6192865;28;20426;-58
2021/12/20 15:56:50;;;;;;;6.03;5.43;;;3.70;25.90;;;;;;6200988;28;20323;-60
2021/12/20 15:59:56;;;;;;;6.13;4.97;;;3.70;26.50;;;;;;6192512;28;20447;-60
2021/12/20 16:02:58;;;;;;;6.20;5.50;;;3.70;27.00;;;;;;6190469;28;20368;-59
2021/12/20 16:06:02;;;;;;;6.53;5.63;;;3.80;26.80;;;;;;6210812;28;20298;-59
2021/12/20 16:09:06;;;;;;;6.37;5.17;;;3.60;27.10;;;;;;6198347;28;20322;-59
2021/12/20 16:12:09;;;;;;;8.30;5.30;;;3.60;27.50;;;;;;6198112;28;20818;-58
2021/12/20 16:15:20;;;;;;;9.23;5.70;;;3.40;27.80;;;;;;6206437;28;20234;-59
2021/12/20 16:18:23;;;;;;;9.90;5.47;;;3.70;28.90;;;;;;6203362;28;20376;-60
2021/12/20 16:21:26;;;;;;;5.73;5.23;;;3.20;28.00;;;;;;6193219;28;20318;-61
2021/12/20 16:24:30;;;;;;;5.27;4.90;;;3.60;26.20;;;;;;6198271;28;20247;-60
2021/12/20 16:27:33;;;;;;;4.53;4.30;;;3.70;20.50;;;;;;6212477;28;20239;-59
2021/12/20 16:30:36;;;;;;;5.20;4.70;;;3.60;18.80;;;;;;6201700;28;20496;-59